sensor_id;sensor_type;location;lat;lon;timestamp;P1;durP1;ratioP1;P2;durP2;ratioP2
15915;SDS011;8057;47.830;-3.870;2022-10-22T00:02:43;32.60;;;5.70;;
15915;SDS011;8057;47.830;-3.870;2022-10-22T00:06:52;27.03;;;6.17;;
15915;SDS011;8057;47.830;-3.870;2022-10-22T00:11:08;37.10;;;5.70;;
15915;SDS011;8057;47.830;-3.870;2022-10-22T00:15:20;27.23;;;5.77;;
15915;SDS011;8057;47.830;-3.870;2022-10-22T00:19:29;24.13;;;5.07;;
15915;SDS011;8057;47.830;-3.870;2022-10-22T00:23:39;26.97;;;5.23;;
15915;SDS011;8057;47.830;-3.870;2022-10-22T00:27:50;36.70;;;6.37;;
15915;SDS011;8057;47.830;-3.870;2022-10-22T00:31:59;28.60;;;5.80;;
15915;SDS011;8057;47.830;-3.870;2022-10-22T00:36:09;26.47;;;6.13;;
15915;SDS011;8057;47.830;-3.870;2022-10-22T00:40:18;31.97;;;6.20;;
15915;SDS011;8057;47.830;-3.870;2022-10-22T00:49:15;27.80;;;5.43;;
15915;SDS011;8057;47.830;-3.870;2022-10-22T00:53:25;28.93;;;5.77;;
15915;SDS011;8057;47.830;-3.870;2022-10-22T00:57:38;26.97;;;5.40;;
15915;SDS011;8057;47.830;-3.870;2022-10-22T01:01:50;21.60;;;5.17;;
15915;SDS011;8057;47.830;-3.870;2022-10-22T01:06:00;30.80;;;5.73;;
15915;SDS011;8057;47.830;-3.870;2022-10-22T01:10:16;24.77;;;4.90;;
15915;SDS011;8057;47.830;-3.870;2022-10-22T01:14:40;23.63;;;5.27;;
15915;SDS011;8057;47.830;-3.870;2022-10-22T01:19:02;23.87;;;5.30;;
15915;SDS011;8057;47.830;-3.870;2022-10-22T01:23:33;25.10;;;4.93;;
15915;SDS011;8057;47.830;-3.870;2022-10-22T01:28:00;23.50;;;5.33;;
15915;SDS011;8057;47.830;-3.870;2022-10-22T01:32:19;22.33;;;5.20;;
15915;SDS011;8057;47.830;-3.870;2022-10-22T01:36:31;30.37;;;6.67;;
15915;SDS011;8057;47.830;-3.870;2022-10-22T01:40:43;24.40;;;5.90;;
15915;SDS011;8057;47.830;-3.870;2022-10-22T01:44:53;23.40;;;5.67;;
15915;SDS011;8057;47.830;-3.870;2022-10-22T01:49:08;24.90;;;5.37;;
15915;SDS011;8057;47.830;-3.870;2022-10-22T01:53:26;24.00;;;5.30;;
15915;SDS011;8057;47.830;-3.870;2022-10-22T01:57:47;20.23;;;5.77;;
15915;SDS011;8057;47.830;-3.870;2022-10-22T02:02:05;26.33;;;5.43;;
15915;SDS011;8057;47.830;-3.870;2022-10-22T02:06:22;18.50;;;5.20;;
15915;SDS011;8057;47.830;-3.870;2022-10-22T02:10:35;22.93;;;5.33;;
15915;SDS011;8057;47.830;-3.870;2022-10-22T02:14:45;28.43;;;6.00;;
15915;SDS011;8057;47.830;-3.870;2022-10-22T02:18:58;24.00;;;5.40;;
15915;SDS011;8057;47.830;-3.870;2022-10-22T02:23:12;24.63;;;5.20;;
15915;SDS011;8057;47.830;-3.870;2022-10-22T02:27:23;25.17;;;6.00;;
15915;SDS011;8057;47.830;-3.870;2022-10-22T02:31:38;21.77;;;5.40;;
15915;SDS011;8057;47.830;-3.870;2022-10-22T02:35:52;23.27;;;4.80;;
15915;SDS011;8057;47.830;-3.870;2022-10-22T02:40:04;26.70;;;5.40;;
15915;SDS011;8057;47.830;-3.870;2022-10-22T02:44:15;23.30;;;5.10;;
15915;SDS011;8057;47.830;-3.870;2022-10-22T02:48:28;27.57;;;5.90;;
15915;SDS011;8057;47.830;-3.870;2022-10-22T02:52:38;20.30;;;5.00;;
15915;SDS011;8057;47.830;-3.870;2022-10-22T02:56:49;22.20;;;4.67;;
15915;SDS011;8057;47.830;-3.870;2022-10-22T03:00:59;24.00;;;4.53;;
15915;SDS011;8057;47.830;-3.870;2022-10-22T03:05:08;24.87;;;5.80;;
15915;SDS011;8057;47.830;-3.870;2022-10-22T03:09:17;28.93;;;5.77;;
15915;SDS011;8057;47.830;-3.870;2022-10-22T03:13:31;24.17;;;5.50;;
15915;SDS011;8057;47.830;-3.870;2022-10-22T03:17:41;22.63;;;5.13;;
15915;SDS011;8057;47.830;-3.870;2022-10-22T03:21:51;30.97;;;6.30;;
15915;SDS011;8057;47.830;-3.870;2022-10-22T03:26:03;23.53;;;5.70;;
15915;SDS011;8057;47.830;-3.870;2022-10-22T03:30:15;26.97;;;4.97;;
15915;SDS011;8057;47.830;-3.870;2022-10-22T03:34:25;27.63;;;5.47;;
15915;SDS011;8057;47.830;-3.870;2022-10-22T03:38:34;24.60;;;5.27;;
15915;SDS011;8057;47.830;-3.870;2022-10-22T03:42:44;21.90;;;4.10;;
15915;SDS011;8057;47.830;-3.870;2022-10-22T03:46:55;21.40;;;4.87;;
15915;SDS011;8057;47.830;-3.870;2022-10-22T03:51:08;20.13;;;4.43;;
15915;SDS011;8057;47.830;-3.870;2022-10-22T03:55:17;25.77;;;5.60;;
15915;SDS011;8057;47.830;-3.870;2022-10-22T03:59:26;30.33;;;5.60;;
15915;SDS011;8057;47.830;-3.870;2022-10-22T04:03:37;17.07;;;4.87;;
15915;SDS011;8057;47.830;-3.870;2022-10-22T04:07:47;24.43;;;4.47;;
15915;SDS011;8057;47.830;-3.870;2022-10-22T04:11:56;18.17;;;4.50;;
15915;SDS011;8057;47.830;-3.870;2022-10-22T04:16:06;20.73;;;4.73;;
15915;SDS011;8057;47.830;-3.870;2022-10-22T04:20:18;24.17;;;5.40;;
15915;SDS011;8057;47.830;-3.870;2022-10-22T04:24:28;19.30;;;4.40;;
15915;SDS011;8057;47.830;-3.870;2022-10-22T04:28:38;23.57;;;4.87;;
15915;SDS011;8057;47.830;-3.870;2022-10-22T04:32:51;24.10;;;4.90;;
15915;SDS011;8057;47.830;-3.870;2022-10-22T04:37:11;18.33;;;4.77;;
15915;SDS011;8057;47.830;-3.870;2022-10-22T04:41:23;25.37;;;4.97;;
15915;SDS011;8057;47.830;-3.870;2022-10-22T04:45:34;23.57;;;4.17;;
15915;SDS011;8057;47.830;-3.870;2022-10-22T04:49:43;18.87;;;4.67;;
15915;SDS011;8057;47.830;-3.870;2022-10-22T04:53:54;26.87;;;4.47;;
15915;SDS011;8057;47.830;-3.870;2022-10-22T04:58:04;23.47;;;4.73;;
15915;SDS011;8057;47.830;-3.870;2022-10-22T05:02:13;25.33;;;5.17;;
15915;SDS011;8057;47.830;-3.870;2022-10-22T05:06:23;21.03;;;4.47;;
15915;SDS011;8057;47.830;-3.870;2022-10-22T05:10:34;20.63;;;4.07;;
15915;SDS011;8057;47.830;-3.870;2022-10-22T05:14:44;22.73;;;4.63;;
15915;SDS011;8057;47.830;-3.870;2022-10-22T05:18:53;23.73;;;4.67;;
15915;SDS011;8057;47.830;-3.870;2022-10-22T05:23:03;21.53;;;4.57;;
15915;SDS011;8057;47.830;-3.870;2022-10-22T05:27:13;27.40;;;5.23;;
15915;SDS011;8057;47.830;-3.870;2022-10-22T05:31:25;22.87;;;5.03;;
15915;SDS011;8057;47.830;-3.870;2022-10-22T05:35:35;24.07;;;5.37;;
15915;SDS011;8057;47.830;-3.870;2022-10-22T05:39:44;19.43;;;4.30;;
15915;SDS011;8057;47.830;-3.870;2022-10-22T05:44:16;21.73;;;4.73;;
15915;SDS011;8057;47.830;-3.870;2022-10-22T05:48:27;32.57;;;5.60;;
15915;SDS011;8057;47.830;-3.870;2022-10-22T05:52:38;22.60;;;4.87;;
15915;SDS011;8057;47.830;-3.870;2022-10-22T05:56:48;24.63;;;4.63;;
15915;SDS011;8057;47.830;-3.870;2022-10-22T06:01:03;21.93;;;4.67;;
15915;SDS011;8057;47.830;-3.870;2022-10-22T06:05:14;20.70;;;4.43;;
15915;SDS011;8057;47.830;-3.870;2022-10-22T06:09:24;23.57;;;4.80;;
15915;SDS011;8057;47.830;-3.870;2022-10-22T06:13:35;27.77;;;4.00;;
15915;SDS011;8057;47.830;-3.870;2022-10-22T06:17:47;26.40;;;4.90;;
15915;SDS011;8057;47.830;-3.870;2022-10-22T06:21:56;28.23;;;4.80;;
15915;SDS011;8057;47.830;-3.870;2022-10-22T06:26:06;25.30;;;4.73;;
15915;SDS011;8057;47.830;-3.870;2022-10-22T06:30:16;18.93;;;3.73;;
15915;SDS011;8057;47.830;-3.870;2022-10-22T06:34:26;22.07;;;4.30;;
15915;SDS011;8057;47.830;-3.870;2022-10-22T06:38:37;22.37;;;4.50;;
15915;SDS011;8057;47.830;-3.870;2022-10-22T06:42:47;24.80;;;4.20;;
15915;SDS011;8057;47.830;-3.870;2022-10-22T06:46:56;16.90;;;3.77;;
15915;SDS011;8057;47.830;-3.870;2022-10-22T06:51:07;24.00;;;4.10;;
15915;SDS011;8057;47.830;-3.870;2022-10-22T06:55:19;21.43;;;4.03;;
15915;SDS011;8057;47.830;-3.870;2022-10-22T06:59:29;26.27;;;3.93;;
15915;SDS011;8057;47.830;-3.870;2022-10-22T07:03:38;21.07;;;3.87;;
15915;SDS011;8057;47.830;-3.870;2022-10-22T07:07:50;22.80;;;4.70;;
15915;SDS011;8057;47.830;-3.870;2022-10-22T07:11:59;25.83;;;4.63;;
15915;SDS011;8057;47.830;-3.870;2022-10-22T07:16:12;16.17;;;3.70;;
15915;SDS011;8057;47.830;-3.870;2022-10-22T07:20:22;27.40;;;5.13;;
15915;SDS011;8057;47.830;-3.870;2022-10-22T07:24:33;20.07;;;3.23;;
15915;SDS011;8057;47.830;-3.870;2022-10-22T07:28:45;15.87;;;3.77;;
15915;SDS011;8057;47.830;-3.870;2022-10-22T07:32:55;20.13;;;3.80;;
15915;SDS011;8057;47.830;-3.870;2022-10-22T07:37:04;20.60;;;3.90;;
15915;SDS011;8057;47.830;-3.870;2022-10-22T07:41:15;23.03;;;4.03;;
15915;SDS011;8057;47.830;-3.870;2022-10-22T07:45:25;22.33;;;4.33;;
15915;SDS011;8057;47.830;-3.870;2022-10-22T07:49:35;15.63;;;3.53;;
15915;SDS011;8057;47.830;-3.870;2022-10-22T07:53:45;21.87;;;4.17;;
15915;SDS011;8057;47.830;-3.870;2022-10-22T07:57:59;24.17;;;4.00;;
15915;SDS011;8057;47.830;-3.870;2022-10-22T08:02:12;23.60;;;5.37;;
15915;SDS011;8057;47.830;-3.870;2022-10-22T08:06:21;15.90;;;3.30;;
15915;SDS011;8057;47.830;-3.870;2022-10-22T08:10:32;18.23;;;3.73;;
15915;SDS011;8057;47.830;-3.870;2022-10-22T08:14:43;15.70;;;3.63;;
15915;SDS011;8057;47.830;-3.870;2022-10-22T08:18:53;14.97;;;3.57;;
15915;SDS011;8057;47.830;-3.870;2022-10-22T08:23:12;14.40;;;3.10;;
15915;SDS011;8057;47.830;-3.870;2022-10-22T08:27:23;14.93;;;3.83;;
15915;SDS011;8057;47.830;-3.870;2022-10-22T08:31:34;20.43;;;3.87;;
15915;SDS011;8057;47.830;-3.870;2022-10-22T08:35:49;15.07;;;3.43;;
15915;SDS011;8057;47.830;-3.870;2022-10-22T08:40:00;13.53;;;2.83;;
15915;SDS011;8057;47.830;-3.870;2022-10-22T08:48:45;16.27;;;3.63;;
15915;SDS011;8057;47.830;-3.870;2022-10-22T08:52:58;15.17;;;3.87;;
15915;SDS011;8057;47.830;-3.870;2022-10-22T08:57:25;15.93;;;3.63;;
15915;SDS011;8057;47.830;-3.870;2022-10-22T09:01:53;16.87;;;3.90;;
15915;SDS011;8057;47.830;-3.870;2022-10-22T09:06:12;12.80;;;3.13;;
15915;SDS011;8057;47.830;-3.870;2022-10-22T09:10:24;15.87;;;3.07;;
15915;SDS011;8057;47.830;-3.870;2022-10-22T09:14:56;18.93;;;3.93;;
15915;SDS011;8057;47.830;-3.870;2022-10-22T09:19:09;18.53;;;4.43;;
15915;SDS011;8057;47.830;-3.870;2022-10-22T09:23:29;14.97;;;3.33;;
15915;SDS011;8057;47.830;-3.870;2022-10-22T09:27:41;14.87;;;3.00;;
15915;SDS011;8057;47.830;-3.870;2022-10-22T09:31:50;16.70;;;3.70;;
15915;SDS011;8057;47.830;-3.870;2022-10-22T09:36:00;12.57;;;3.20;;
15915;SDS011;8057;47.830;-3.870;2022-10-22T09:40:15;12.47;;;2.73;;
15915;SDS011;8057;47.830;-3.870;2022-10-22T09:44:26;11.17;;;2.47;;
15915;SDS011;8057;47.830;-3.870;2022-10-22T09:48:38;10.13;;;2.33;;
15915;SDS011;8057;47.830;-3.870;2022-10-22T09:52:54;13.20;;;2.80;;
15915;SDS011;8057;47.830;-3.870;2022-10-22T09:57:14;12.00;;;2.67;;
15915;SDS011;8057;47.830;-3.870;2022-10-22T10:01:25;8.53;;;1.83;;
15915;SDS011;8057;47.830;-3.870;2022-10-22T10:05:36;10.73;;;2.93;;
15915;SDS011;8057;47.830;-3.870;2022-10-22T10:09:50;9.23;;;2.30;;
15915;SDS011;8057;47.830;-3.870;2022-10-22T10:14:04;10.97;;;2.87;;
15915;SDS011;8057;47.830;-3.870;2022-10-22T10:18:26;8.33;;;2.50;;
15915;SDS011;8057;47.830;-3.870;2022-10-22T10:22:47;9.73;;;2.20;;
15915;SDS011;8057;47.830;-3.870;2022-10-22T10:27:08;13.77;;;2.60;;
15915;SDS011;8057;47.830;-3.870;2022-10-22T10:32:00;8.47;;;2.27;;
15915;SDS011;8057;47.830;-3.870;2022-10-22T10:36:18;8.97;;;1.80;;
15915;SDS011;8057;47.830;-3.870;2022-10-22T10:40:38;6.53;;;2.13;;
15915;SDS011;8057;47.830;-3.870;2022-10-22T10:45:29;8.83;;;1.90;;
15915;SDS011;8057;47.830;-3.870;2022-10-22T10:49:48;9.87;;;2.17;;
15915;SDS011;8057;47.830;-3.870;2022-10-22T10:54:05;7.63;;;2.20;;
15915;SDS011;8057;47.830;-3.870;2022-10-22T10:58:24;7.37;;;2.20;;
15915;SDS011;8057;47.830;-3.870;2022-10-22T11:07:33;9.57;;;2.17;;
15915;SDS011;8057;47.830;-3.870;2022-10-22T11:11:50;7.43;;;2.10;;
15915;SDS011;8057;47.830;-3.870;2022-10-22T11:16:08;10.10;;;2.27;;
15915;SDS011;8057;47.830;-3.870;2022-10-22T11:20:26;9.10;;;2.90;;
15915;SDS011;8057;47.830;-3.870;2022-10-22T11:24:48;10.57;;;2.40;;
15915;SDS011;8057;47.830;-3.870;2022-10-22T11:29:02;11.23;;;2.70;;
15915;SDS011;8057;47.830;-3.870;2022-10-22T11:33:20;9.27;;;2.50;;
15915;SDS011;8057;47.830;-3.870;2022-10-22T11:37:37;11.13;;;2.63;;
15915;SDS011;8057;47.830;-3.870;2022-10-22T11:41:50;12.17;;;2.60;;
15915;SDS011;8057;47.830;-3.870;2022-10-22T11:46:03;10.70;;;2.47;;
15915;SDS011;8057;47.830;-3.870;2022-10-22T11:50:49;14.40;;;2.83;;
15915;SDS011;8057;47.830;-3.870;2022-10-22T11:55:10;14.53;;;3.37;;
15915;SDS011;8057;47.830;-3.870;2022-10-22T11:59:43;12.33;;;2.87;;
15915;SDS011;8057;47.830;-3.870;2022-10-22T12:04:15;12.63;;;2.67;;
15915;SDS011;8057;47.830;-3.870;2022-10-22T12:08:27;13.73;;;2.97;;
15915;SDS011;8057;47.830;-3.870;2022-10-22T12:12:52;15.80;;;3.30;;
15915;SDS011;8057;47.830;-3.870;2022-10-22T12:17:07;9.67;;;2.57;;
15915;SDS011;8057;47.830;-3.870;2022-10-22T12:21:21;10.13;;;2.53;;
15915;SDS011;8057;47.830;-3.870;2022-10-22T12:25:33;10.77;;;2.47;;
15915;SDS011;8057;47.830;-3.870;2022-10-22T12:29:45;11.17;;;2.83;;
15915;SDS011;8057;47.830;-3.870;2022-10-22T12:34:03;15.80;;;2.80;;
15915;SDS011;8057;47.830;-3.870;2022-10-22T12:38:15;10.73;;;2.43;;
15915;SDS011;8057;47.830;-3.870;2022-10-22T12:42:28;9.17;;;2.30;;
15915;SDS011;8057;47.830;-3.870;2022-10-22T12:46:41;9.03;;;2.00;;
15915;SDS011;8057;47.830;-3.870;2022-10-22T12:56:06;11.33;;;2.80;;
15915;SDS011;8057;47.830;-3.870;2022-10-22T13:00:24;8.23;;;2.03;;
15915;SDS011;8057;47.830;-3.870;2022-10-22T13:05:02;10.07;;;2.10;;
15915;SDS011;8057;47.830;-3.870;2022-10-22T13:09:39;8.53;;;2.00;;
15915;SDS011;8057;47.830;-3.870;2022-10-22T13:14:00;9.40;;;1.90;;
15915;SDS011;8057;47.830;-3.870;2022-10-22T13:18:16;6.00;;;1.83;;
15915;SDS011;8057;47.830;-3.870;2022-10-22T13:22:52;8.67;;;2.67;;
15915;SDS011;8057;47.830;-3.870;2022-10-22T13:32:29;9.17;;;2.23;;
15915;SDS011;8057;47.830;-3.870;2022-10-22T13:37:08;7.20;;;2.13;;
15915;SDS011;8057;47.830;-3.870;2022-10-22T13:41:18;10.20;;;2.43;;
15915;SDS011;8057;47.830;-3.870;2022-10-22T13:45:40;15.03;;;2.70;;
15915;SDS011;8057;47.830;-3.870;2022-10-22T13:50:18;7.83;;;2.30;;
15915;SDS011;8057;47.830;-3.870;2022-10-22T13:54:30;9.03;;;2.40;;
15915;SDS011;8057;47.830;-3.870;2022-10-22T13:58:47;9.17;;;1.70;;
15915;SDS011;8057;47.830;-3.870;2022-10-22T14:08:13;6.27;;;1.83;;
15915;SDS011;8057;47.830;-3.870;2022-10-22T14:12:44;6.80;;;1.93;;
15915;SDS011;8057;47.830;-3.870;2022-10-22T14:17:00;7.27;;;1.60;;
15915;SDS011;8057;47.830;-3.870;2022-10-22T14:21:46;9.07;;;2.13;;
15915;SDS011;8057;47.830;-3.870;2022-10-22T14:25:57;5.63;;;2.07;;
15915;SDS011;8057;47.830;-3.870;2022-10-22T14:30:18;7.10;;;1.80;;
15915;SDS011;8057;47.830;-3.870;2022-10-22T14:35:32;9.73;;;2.13;;
15915;SDS011;8057;47.830;-3.870;2022-10-22T14:40:05;9.23;;;2.30;;
15915;SDS011;8057;47.830;-3.870;2022-10-22T14:44:17;7.30;;;1.90;;
15915;SDS011;8057;47.830;-3.870;2022-10-22T14:48:31;13.10;;;3.13;;
15915;SDS011;8057;47.830;-3.870;2022-10-22T14:53:21;12.50;;;2.70;;
15915;SDS011;8057;47.830;-3.870;2022-10-22T14:57:51;7.77;;;2.17;;
15915;SDS011;8057;47.830;-3.870;2022-10-22T15:06:51;9.50;;;2.40;;
15915;SDS011;8057;47.830;-3.870;2022-10-22T15:11:03;9.17;;;2.60;;
15915;SDS011;8057;47.830;-3.870;2022-10-22T15:15:21;8.67;;;2.60;;
15915;SDS011;8057;47.830;-3.870;2022-10-22T15:19:52;12.30;;;3.13;;
15915;SDS011;8057;47.830;-3.870;2022-10-22T15:24:07;12.47;;;3.47;;
15915;SDS011;8057;47.830;-3.870;2022-10-22T15:28:17;9.90;;;3.40;;
15915;SDS011;8057;47.830;-3.870;2022-10-22T15:32:51;13.00;;;3.70;;
15915;SDS011;8057;47.830;-3.870;2022-10-22T15:37:06;13.80;;;3.50;;
15915;SDS011;8057;47.830;-3.870;2022-10-22T15:41:27;12.00;;;3.33;;
15915;SDS011;8057;47.830;-3.870;2022-10-22T15:46:10;13.00;;;3.60;;
15915;SDS011;8057;47.830;-3.870;2022-10-22T15:51:02;15.83;;;3.57;;
15915;SDS011;8057;47.830;-3.870;2022-10-22T15:55:47;12.47;;;3.20;;
15915;SDS011;8057;47.830;-3.870;2022-10-22T16:00:21;13.73;;;3.70;;
15915;SDS011;8057;47.830;-3.870;2022-10-22T16:04:32;17.03;;;3.83;;
15915;SDS011;8057;47.830;-3.870;2022-10-22T16:08:59;12.70;;;3.63;;
15915;SDS011;8057;47.830;-3.870;2022-10-22T16:13:14;16.17;;;4.00;;
15915;SDS011;8057;47.830;-3.870;2022-10-22T16:17:44;13.80;;;3.73;;
15915;SDS011;8057;47.830;-3.870;2022-10-22T16:21:57;13.87;;;3.60;;
15915;SDS011;8057;47.830;-3.870;2022-10-22T16:26:12;14.40;;;4.07;;
15915;SDS011;8057;47.830;-3.870;2022-10-22T16:30:22;17.63;;;4.43;;
15915;SDS011;8057;47.830;-3.870;2022-10-22T16:34:46;15.60;;;3.97;;
15915;SDS011;8057;47.830;-3.870;2022-10-22T16:39:14;15.97;;;4.60;;
15915;SDS011;8057;47.830;-3.870;2022-10-22T16:43:34;16.73;;;4.10;;
15915;SDS011;8057;47.830;-3.870;2022-10-22T16:47:50;16.13;;;4.30;;
15915;SDS011;8057;47.830;-3.870;2022-10-22T16:51:59;12.87;;;3.97;;
15915;SDS011;8057;47.830;-3.870;2022-10-22T16:56:19;14.93;;;4.20;;
15915;SDS011;8057;47.830;-3.870;2022-10-22T17:00:37;16.20;;;4.47;;
15915;SDS011;8057;47.830;-3.870;2022-10-22T17:04:46;12.53;;;4.13;;
15915;SDS011;8057;47.830;-3.870;2022-10-22T17:09:00;13.20;;;4.60;;
15915;SDS011;8057;47.830;-3.870;2022-10-22T17:13:09;12.63;;;3.50;;
15915;SDS011;8057;47.830;-3.870;2022-10-22T17:22:06;13.73;;;3.90;;
15915;SDS011;8057;47.830;-3.870;2022-10-22T17:26:22;13.83;;;5.00;;
15915;SDS011;8057;47.830;-3.870;2022-10-22T17:30:39;10.33;;;3.70;;
15915;SDS011;8057;47.830;-3.870;2022-10-22T17:34:55;14.27;;;4.53;;
15915;SDS011;8057;47.830;-3.870;2022-10-22T17:39:07;12.13;;;3.60;;
15915;SDS011;8057;47.830;-3.870;2022-10-22T17:43:40;11.43;;;4.27;;
15915;SDS011;8057;47.830;-3.870;2022-10-22T17:48:16;14.63;;;3.80;;
15915;SDS011;8057;47.830;-3.870;2022-10-22T17:52:31;15.77;;;4.23;;
15915;SDS011;8057;47.830;-3.870;2022-10-22T17:56:43;11.77;;;4.20;;
15915;SDS011;8057;47.830;-3.870;2022-10-22T18:01:02;11.57;;;3.40;;
15915;SDS011;8057;47.830;-3.870;2022-10-22T18:05:19;15.40;;;4.33;;
15915;SDS011;8057;47.830;-3.870;2022-10-22T18:10:13;15.10;;;4.07;;
15915;SDS011;8057;47.830;-3.870;2022-10-22T18:15:23;14.40;;;3.90;;
15915;SDS011;8057;47.830;-3.870;2022-10-22T18:29:07;10.57;;;3.27;;
15915;SDS011;8057;47.830;-3.870;2022-10-22T18:33:47;12.10;;;3.73;;
15915;SDS011;8057;47.830;-3.870;2022-10-22T18:38:16;10.17;;;3.27;;
15915;SDS011;8057;47.830;-3.870;2022-10-22T18:42:47;13.13;;;3.57;;
15915;SDS011;8057;47.830;-3.870;2022-10-22T18:56:11;9.70;;;3.03;;
15915;SDS011;8057;47.830;-3.870;2022-10-22T19:00:47;12.53;;;3.67;;
15915;SDS011;8057;47.830;-3.870;2022-10-22T19:05:48;12.27;;;3.40;;
15915;SDS011;8057;47.830;-3.870;2022-10-22T19:10:25;12.10;;;3.70;;
15915;SDS011;8057;47.830;-3.870;2022-10-22T19:15:03;13.47;;;4.10;;
15915;SDS011;8057;47.830;-3.870;2022-10-22T19:33:49;12.03;;;3.90;;
15915;SDS011;8057;47.830;-3.870;2022-10-22T19:38:41;14.77;;;4.00;;
15915;SDS011;8057;47.830;-3.870;2022-10-22T19:43:08;13.43;;;3.50;;
15915;SDS011;8057;47.830;-3.870;2022-10-22T19:47:26;10.20;;;3.33;;
15915;SDS011;8057;47.830;-3.870;2022-10-22T19:52:03;15.37;;;3.87;;
15915;SDS011;8057;47.830;-3.870;2022-10-22T19:56:16;12.70;;;4.00;;
15915;SDS011;8057;47.830;-3.870;2022-10-22T20:01:03;10.23;;;3.83;;
15915;SDS011;8057;47.830;-3.870;2022-10-22T20:05:49;12.63;;;2.93;;
15915;SDS011;8057;47.830;-3.870;2022-10-22T20:10:09;12.43;;;3.40;;
15915;SDS011;8057;47.830;-3.870;2022-10-22T20:14:31;7.67;;;2.90;;
15915;SDS011;8057;47.830;-3.870;2022-10-22T20:18:41;8.50;;;2.73;;
15915;SDS011;8057;47.830;-3.870;2022-10-22T20:22:53;11.77;;;2.87;;
15915;SDS011;8057;47.830;-3.870;2022-10-22T20:27:28;8.50;;;2.70;;
15915;SDS011;8057;47.830;-3.870;2022-10-22T20:31:45;7.13;;;3.07;;
15915;SDS011;8057;47.830;-3.870;2022-10-22T20:35:56;16.67;;;3.23;;
15915;SDS011;8057;47.830;-3.870;2022-10-22T20:40:07;11.87;;;3.30;;
15915;SDS011;8057;47.830;-3.870;2022-10-22T20:44:43;10.97;;;3.53;;
15915;SDS011;8057;47.830;-3.870;2022-10-22T20:48:55;12.43;;;3.77;;
15915;SDS011;8057;47.830;-3.870;2022-10-22T20:53:25;10.10;;;2.83;;
15915;SDS011;8057;47.830;-3.870;2022-10-22T20:57:36;13.80;;;3.47;;
15915;SDS011;8057;47.830;-3.870;2022-10-22T21:02:00;10.47;;;3.90;;
15915;SDS011;8057;47.830;-3.870;2022-10-22T21:06:29;7.63;;;2.93;;
15915;SDS011;8057;47.830;-3.870;2022-10-22T21:10:44;11.57;;;3.63;;
15915;SDS011;8057;47.830;-3.870;2022-10-22T21:14:55;10.50;;;3.17;;
15915;SDS011;8057;47.830;-3.870;2022-10-22T21:23:52;17.10;;;3.50;;
15915;SDS011;8057;47.830;-3.870;2022-10-22T21:28:03;8.10;;;2.53;;
15915;SDS011;8057;47.830;-3.870;2022-10-22T21:32:17;11.33;;;3.30;;
15915;SDS011;8057;47.830;-3.870;2022-10-22T21:36:51;8.13;;;3.03;;
15915;SDS011;8057;47.830;-3.870;2022-10-22T21:41:26;10.43;;;2.70;;
15915;SDS011;8057;47.830;-3.870;2022-10-22T21:46:01;10.20;;;3.07;;
15915;SDS011;8057;47.830;-3.870;2022-10-22T21:50:14;13.57;;;3.33;;
15915;SDS011;8057;47.830;-3.870;2022-10-22T21:54:36;11.27;;;3.10;;
15915;SDS011;8057;47.830;-3.870;2022-10-22T21:58:59;12.63;;;3.13;;
15915;SDS011;8057;47.830;-3.870;2022-10-22T22:03:10;13.33;;;3.43;;
15915;SDS011;8057;47.830;-3.870;2022-10-22T22:08:14;16.70;;;3.00;;
15915;SDS011;8057;47.830;-3.870;2022-10-22T22:12:25;11.07;;;3.30;;
15915;SDS011;8057;47.830;-3.870;2022-10-22T22:16:49;13.97;;;3.67;;
15915;SDS011;8057;47.830;-3.870;2022-10-22T22:21:13;13.97;;;3.80;;
15915;SDS011;8057;47.830;-3.870;2022-10-22T22:29:57;15.90;;;4.10;;
15915;SDS011;8057;47.830;-3.870;2022-10-22T22:34:09;14.17;;;3.47;;
15915;SDS011;8057;47.830;-3.870;2022-10-22T22:38:36;11.90;;;3.43;;
15915;SDS011;8057;47.830;-3.870;2022-10-22T22:42:55;9.07;;;2.97;;
15915;SDS011;8057;47.830;-3.870;2022-10-22T22:47:13;13.27;;;3.50;;
15915;SDS011;8057;47.830;-3.870;2022-10-22T22:51:28;15.90;;;3.53;;
15915;SDS011;8057;47.830;-3.870;2022-10-22T22:55:39;11.37;;;3.40;;
15915;SDS011;8057;47.830;-3.870;2022-10-22T22:59:53;18.00;;;4.50;;
15915;SDS011;8057;47.830;-3.870;2022-10-22T23:04:04;12.70;;;3.90;;
15915;SDS011;8057;47.830;-3.870;2022-10-22T23:08:14;14.60;;;3.27;;
15915;SDS011;8057;47.830;-3.870;2022-10-22T23:12:24;10.17;;;2.53;;
15915;SDS011;8057;47.830;-3.870;2022-10-22T23:16:40;14.07;;;2.77;;
15915;SDS011;8057;47.830;-3.870;2022-10-22T23:20:54;15.63;;;2.80;;
15915;SDS011;8057;47.830;-3.870;2022-10-22T23:25:06;18.70;;;3.27;;
15915;SDS011;8057;47.830;-3.870;2022-10-22T23:29:27;14.93;;;2.90;;
15915;SDS011;8057;47.830;-3.870;2022-10-22T23:33:40;15.77;;;3.17;;
15915;SDS011;8057;47.830;-3.870;2022-10-22T23:37:53;16.53;;;3.50;;
15915;SDS011;8057;47.830;-3.870;2022-10-22T23:42:09;17.17;;;3.77;;
15915;SDS011;8057;47.830;-3.870;2022-10-22T23:46:30;19.47;;;3.60;;
15915;SDS011;8057;47.830;-3.870;2022-10-22T23:50:46;14.33;;;3.80;;
15915;SDS011;8057;47.830;-3.870;2022-10-22T23:54:56;16.73;;;3.30;;
15915;SDS011;8057;47.830;-3.870;2022-10-22T23:59:13;15.80;;;3.33;;
